sensor_id;sensor_type;location;lat;lon;timestamp;pressure;altitude;pressure_sealevel;temperature;humidity
7832;BME280;3961;42.058;25.586;2022-12-29T00:01:39;62948.84;;;6.53;100.00
7832;BME280;3961;42.058;25.586;2022-12-29T00:04:06;62947.34;;;6.54;100.00
7832;BME280;3961;42.058;25.586;2022-12-29T00:06:31;62953.69;;;6.60;100.00
7832;BME280;3961;42.058;25.586;2022-12-29T00:08:57;62951.13;;;6.55;100.00
7832;BME280;3961;42.058;25.586;2022-12-29T00:11:25;62954.25;;;6.60;100.00
7832;BME280;3961;42.058;25.586;2022-12-29T00:13:51;62947.03;;;6.56;100.00
7832;BME280;3961;42.058;25.586;2022-12-29T00:16:36;62959.44;;;6.65;100.00
7832;BME280;3961;42.058;25.586;2022-12-29T00:19:03;62949.06;;;6.56;100.00
7832;BME280;3961;42.058;25.586;2022-12-29T00:21:29;62942.75;;;6.50;100.00
7832;BME280;3961;42.058;25.586;2022-12-29T00:24:21;62959.19;;;6.62;100.00
7832;BME280;3961;42.058;25.586;2022-12-29T00:29:45;62974.72;;;6.76;100.00
7832;BME280;3961;42.058;25.586;2022-12-29T00:32:28;62974.97;;;6.79;100.00
7832;BME280;3961;42.058;25.586;2022-12-29T00:35:17;62966.91;;;6.71;100.00
7832;BME280;3961;42.058;25.586;2022-12-29T00:37:45;62980.13;;;6.83;100.00
7832;BME280;3961;42.058;25.586;2022-12-29T00:40:29;62971.19;;;6.78;100.00
7832;BME280;3961;42.058;25.586;2022-12-29T00:43:13;62970.03;;;6.77;100.00
7832;BME280;3961;42.058;25.586;2022-12-29T00:45:57;62956.47;;;6.67;100.00
7832;BME280;3961;42.058;25.586;2022-12-29T00:48:23;62970.69;;;6.72;100.00
7832;BME280;3961;42.058;25.586;2022-12-29T00:51:07;62934.72;;;6.43;100.00
7832;BME280;3961;42.058;25.586;2022-12-29T00:53:33;62950.22;;;6.57;100.00
7832;BME280;3961;42.058;25.586;2022-12-29T00:55:59;62942.53;;;6.48;100.00
7832;BME280;3961;42.058;25.586;2022-12-29T00:58:27;62957.13;;;6.63;100.00
7832;BME280;3961;42.058;25.586;2022-12-29T01:01:01;62945.38;;;6.50;100.00
7832;BME280;3961;42.058;25.586;2022-12-29T01:03:27;62946.19;;;6.53;100.00
7832;BME280;3961;42.058;25.586;2022-12-29T01:05:53;62965.19;;;6.70;100.00
7832;BME280;3961;42.058;25.586;2022-12-29T01:08:18;62971.84;;;6.73;100.00
7832;BME280;3961;42.058;25.586;2022-12-29T01:10:44;62953.91;;;6.62;100.00
7832;BME280;3961;42.058;25.586;2022-12-29T01:13:09;62968.63;;;6.73;100.00
7832;BME280;3961;42.058;25.586;2022-12-29T01:15:35;62978.06;;;6.84;100.00
7832;BME280;3961;42.058;25.586;2022-12-29T01:18:00;62927.50;;;6.39;100.00
7832;BME280;3961;42.058;25.586;2022-12-29T01:20:26;62974.16;;;6.76;100.00
7832;BME280;3961;42.058;25.586;2022-12-29T01:22:53;62965.19;;;6.70;100.00
7832;BME280;3961;42.058;25.586;2022-12-29T01:25:19;62972.75;;;6.72;100.00
7832;BME280;3961;42.058;25.586;2022-12-29T01:27:45;62990.16;;;6.94;100.00
7832;BME280;3961;42.058;25.586;2022-12-29T01:30:12;62972.44;;;6.74;100.00
7832;BME280;3961;42.058;25.586;2022-12-29T01:32:37;62960.25;;;6.68;100.00
7832;BME280;3961;42.058;25.586;2022-12-29T01:35:03;62943.56;;;6.53;100.00
7832;BME280;3961;42.058;25.586;2022-12-29T01:37:29;62952.78;;;6.61;100.00
7832;BME280;3961;42.058;25.586;2022-12-29T01:39:54;62965.75;;;6.70;100.00
7832;BME280;3961;42.058;25.586;2022-12-29T01:42:23;62976.44;;;6.78;100.00
7832;BME280;3961;42.058;25.586;2022-12-29T01:44:57;62967.50;;;6.72;100.00
7832;BME280;3961;42.058;25.586;2022-12-29T01:47:38;62974.38;;;6.78;100.00
7832;BME280;3961;42.058;25.586;2022-12-29T01:50:29;62962.56;;;6.70;100.00
7832;BME280;3961;42.058;25.586;2022-12-29T01:53:04;62956.78;;;6.65;100.00
7832;BME280;3961;42.058;25.586;2022-12-29T01:55:36;62963.78;;;6.66;100.00
7832;BME280;3961;42.058;25.586;2022-12-29T01:58:04;62964.28;;;6.71;100.00
7832;BME280;3961;42.058;25.586;2022-12-29T02:00:32;62944.38;;;6.56;100.00
7832;BME280;3961;42.058;25.586;2022-12-29T02:02:57;62965.44;;;6.72;100.00
7832;BME280;3961;42.058;25.586;2022-12-29T02:08:08;62954.84;;;6.61;100.00
7832;BME280;3961;42.058;25.586;2022-12-29T02:10:35;62976.00;;;6.84;100.00
7832;BME280;3961;42.058;25.586;2022-12-29T02:13:01;62971.19;;;6.78;100.00
7832;BME280;3961;42.058;25.586;2022-12-29T02:15:48;62979.78;;;6.85;100.00
7832;BME280;3961;42.058;25.586;2022-12-29T02:18:36;62965.44;;;6.72;100.00
7832;BME280;3961;42.058;25.586;2022-12-29T02:37:43;62955.75;;;6.59;100.00
7832;BME280;3961;42.058;25.586;2022-12-29T02:41:05;62958.19;;;6.68;100.00
7832;BME280;3961;42.058;25.586;2022-12-29T02:43:39;62966.34;;;6.71;100.00
7832;BME280;3961;42.058;25.586;2022-12-29T02:51:29;62976.91;;;6.83;100.00
7832;BME280;3961;42.058;25.586;2022-12-29T02:53:56;62974.38;;;6.78;100.00
7832;BME280;3961;42.058;25.586;2022-12-29T02:56:41;62955.66;;;6.64;100.00
7832;BME280;3961;42.058;25.586;2022-12-29T02:59:06;62981.84;;;6.85;100.00
7832;BME280;3961;42.058;25.586;2022-12-29T03:04:50;62974.38;;;6.78;100.00
7832;BME280;3961;42.058;25.586;2022-12-29T03:08:01;62976.69;;;6.80;100.00
7832;BME280;3961;42.058;25.586;2022-12-29T03:13:13;62979.00;;;6.82;100.00
7832;BME280;3961;42.058;25.586;2022-12-29T03:16:07;62976.44;;;6.78;100.00
7832;BME280;3961;42.058;25.586;2022-12-29T03:18:42;62979.22;;;6.85;100.00
7832;BME280;3961;42.058;25.586;2022-12-29T03:24:13;62967.81;;;6.70;100.00
7832;BME280;3961;42.058;25.586;2022-12-29T03:26:41;62964.59;;;6.69;100.00
7832;BME280;3961;42.058;25.586;2022-12-29T03:29:09;62979.53;;;6.83;100.00
7832;BME280;3961;42.058;25.586;2022-12-29T03:31:36;62962.31;;;6.67;100.00
7832;BME280;3961;42.058;25.586;2022-12-29T03:34:03;62954.84;;;6.61;100.00
7832;BME280;3961;42.058;25.586;2022-12-29T03:36:46;62970.38;;;6.74;100.00
7832;BME280;3961;42.058;25.586;2022-12-29T03:39:13;62972.09;;;6.76;100.00
7832;BME280;3961;42.058;25.586;2022-12-29T03:41:43;62983.34;;;6.84;100.00
7832;BME280;3961;42.058;25.586;2022-12-29T03:44:10;62972.56;;;6.81;100.00
7832;BME280;3961;42.058;25.586;2022-12-29T03:46:36;62974.06;;;6.80;100.00
7832;BME280;3961;42.058;25.586;2022-12-29T03:49:02;62981.28;;;6.84;100.00
7832;BME280;3961;42.058;25.586;2022-12-29T03:51:27;62962.31;;;6.67;100.00
7832;BME280;3961;42.058;25.586;2022-12-29T03:53:53;62951.94;;;6.58;100.00
7832;BME280;3961;42.058;25.586;2022-12-29T03:56:18;62972.09;;;6.76;100.00
7832;BME280;3961;42.058;25.586;2022-12-29T03:58:44;62959.75;;;6.63;100.00
7832;BME280;3961;42.058;25.586;2022-12-29T04:01:09;62959.44;;;6.65;100.00
7832;BME280;3961;42.058;25.586;2022-12-29T04:03:34;62947.03;;;6.56;100.00
7832;BME280;3961;42.058;25.586;2022-12-29T04:06:00;62976.78;;;6.76;100.00
7832;BME280;3961;42.058;25.586;2022-12-29T04:08:26;62985.31;;;6.88;100.00
7832;BME280;3961;42.058;25.586;2022-12-29T04:10:51;62975.88;;;6.77;100.00
7832;BME280;3961;42.058;25.586;2022-12-29T04:13:17;62974.97;;;6.79;100.00
7832;BME280;3961;42.058;25.586;2022-12-29T04:15:43;62980.13;;;6.83;100.00
7832;BME280;3961;42.058;25.586;2022-12-29T04:18:10;62991.63;;;6.93;100.00
7832;BME280;3961;42.058;25.586;2022-12-29T04:20:36;62990.81;;;6.90;100.00
7832;BME280;3961;42.058;25.586;2022-12-29T04:23:20;62989.91;;;6.92;100.00
7832;BME280;3961;42.058;25.586;2022-12-29T04:25:46;62982.66;;;6.88;100.00
7832;BME280;3961;42.058;25.586;2022-12-29T04:28:15;62984.16;;;6.87;100.00
7832;BME280;3961;42.058;25.586;2022-12-29T04:30:41;62981.28;;;6.84;100.00
7832;BME280;3961;42.058;25.586;2022-12-29T04:33:06;62984.16;;;6.87;100.00
7832;BME280;3961;42.058;25.586;2022-12-29T04:35:32;62986.22;;;6.86;100.00
7832;BME280;3961;42.058;25.586;2022-12-29T04:37:57;62977.03;;;6.78;100.00
7832;BME280;3961;42.058;25.586;2022-12-29T04:40:22;62986.44;;;6.89;100.00
7832;BME280;3961;42.058;25.586;2022-12-29T04:42:49;62987.03;;;6.89;100.00
7832;BME280;3961;42.058;25.586;2022-12-29T04:45:15;62983.47;;;6.91;100.00
7832;BME280;3961;42.058;25.586;2022-12-29T04:47:40;62992.78;;;6.94;100.00
7832;BME280;3961;42.058;25.586;2022-12-29T04:50:06;62993.94;;;6.95;100.00
7832;BME280;3961;42.058;25.586;2022-12-29T04:52:32;62999.09;;;7.00;100.00
7832;BME280;3961;42.058;25.586;2022-12-29T04:54:57;62992.78;;;6.94;100.00
7832;BME280;3961;42.058;25.586;2022-12-29T04:57:23;62956.78;;;6.65;100.00
7832;BME280;3961;42.058;25.586;2022-12-29T04:59:48;62983.56;;;6.86;100.00
7832;BME280;3961;42.058;25.586;2022-12-29T05:02:14;62984.16;;;6.87;100.00
7832;BME280;3961;42.058;25.586;2022-12-29T05:04:40;63005.44;;;7.05;100.00
7832;BME280;3961;42.058;25.586;2022-12-29T05:07:05;62967.72;;;6.74;100.00
7832;BME280;3961;42.058;25.586;2022-12-29T05:09:31;62968.63;;;6.73;100.00
7832;BME280;3961;42.058;25.586;2022-12-29T05:11:56;62982.09;;;6.87;100.00
7832;BME280;3961;42.058;25.586;2022-12-29T05:14:22;62982.09;;;6.87;100.00
7832;BME280;3961;42.058;25.586;2022-12-29T05:16:47;62985.53;;;6.90;100.00
7832;BME280;3961;42.058;25.586;2022-12-29T05:19:13;62987.59;;;6.90;100.00
7832;BME280;3961;42.058;25.586;2022-12-29T05:21:38;62973.25;;;6.77;100.00
7832;BME280;3961;42.058;25.586;2022-12-29T05:24:04;62973.81;;;6.78;100.00
7832;BME280;3961;42.058;25.586;2022-12-29T05:26:30;62973.25;;;6.77;100.00
7832;BME280;3961;42.058;25.586;2022-12-29T05:28:56;62987.59;;;6.90;100.00
7832;BME280;3961;42.058;25.586;2022-12-29T05:31:21;62989.31;;;6.91;100.00
7832;BME280;3961;42.058;25.586;2022-12-29T05:33:46;62971.28;;;6.73;100.00
7832;BME280;3961;42.058;25.586;2022-12-29T05:36:12;62979.91;;;6.81;100.00
7832;BME280;3961;42.058;25.586;2022-12-29T05:38:38;62966.00;;;6.73;100.00
7832;BME280;3961;42.058;25.586;2022-12-29T05:41:03;62968.88;;;6.76;100.00
7832;BME280;3961;42.058;25.586;2022-12-29T05:43:29;62966.56;;;6.73;100.00
7832;BME280;3961;42.058;25.586;2022-12-29T05:45:54;62945.38;;;6.50;100.00
7832;BME280;3961;42.058;25.586;2022-12-29T05:48:20;62961.41;;;6.69;100.00
7832;BME280;3961;42.058;25.586;2022-12-29T05:50:50;62957.38;;;6.65;100.00
7832;BME280;3961;42.058;25.586;2022-12-29T05:53:16;62949.91;;;6.59;100.00
7832;BME280;3961;42.058;25.586;2022-12-29T05:55:43;62907.38;;;6.21;100.00
7832;BME280;3961;42.058;25.586;2022-12-29T05:58:09;62927.16;;;6.41;100.00
7832;BME280;3961;42.058;25.586;2022-12-29T06:00:34;62930.47;;;6.37;100.00
7832;BME280;3961;42.058;25.586;2022-12-29T06:03:00;62912.88;;;6.24;100.00
7832;BME280;3961;42.058;25.586;2022-12-29T06:05:25;62915.41;;;6.28;100.00
7832;BME280;3961;42.058;25.586;2022-12-29T06:07:51;62928.41;;;6.37;100.00
7832;BME280;3961;42.058;25.586;2022-12-29T06:10:16;62908.50;;;6.22;100.00
7832;BME280;3961;42.058;25.586;2022-12-29T06:12:42;62922.41;;;6.30;100.00
7832;BME280;3961;42.058;25.586;2022-12-29T06:15:08;62927.00;;;6.34;100.00
7832;BME280;3961;42.058;25.586;2022-12-29T06:17:33;62918.88;;;6.31;100.00
7832;BME280;3961;42.058;25.586;2022-12-29T06:19:59;62944.00;;;6.47;100.00
7832;BME280;3961;42.058;25.586;2022-12-29T06:22:24;62951.94;;;6.58;100.00
7832;BME280;3961;42.058;25.586;2022-12-29T06:24:50;62963.22;;;6.66;100.00
7832;BME280;3961;42.058;25.586;2022-12-29T06:27:15;62950.47;;;6.59;100.00
7832;BME280;3961;42.058;25.586;2022-12-29T06:29:41;62939.66;;;6.45;100.00
7832;BME280;3961;42.058;25.586;2022-12-29T06:32:08;62920.00;;;6.32;100.00
7832;BME280;3961;42.058;25.586;2022-12-29T06:34:34;62955.97;;;6.62;100.00
7832;BME280;3961;42.058;25.586;2022-12-29T06:36:59;62962.06;;;6.65;100.00
7832;BME280;3961;42.058;25.586;2022-12-29T06:39:24;62973.56;;;6.75;100.00
7832;BME280;3961;42.058;25.586;2022-12-29T06:41:53;62973.25;;;6.77;100.00
7832;BME280;3961;42.058;25.586;2022-12-29T06:44:22;62976.34;;;6.82;100.00
7832;BME280;3961;42.058;25.586;2022-12-29T06:46:48;62974.63;;;6.81;100.00
7832;BME280;3961;42.058;25.586;2022-12-29T06:49:14;62973.81;;;6.78;100.00
7832;BME280;3961;42.058;25.586;2022-12-29T06:51:39;62979.78;;;6.85;100.00
7832;BME280;3961;42.058;25.586;2022-12-29T06:54:05;62979.22;;;6.85;100.00
7832;BME280;3961;42.058;25.586;2022-12-29T06:56:31;62985.19;;;6.92;100.00
7832;BME280;3961;42.058;25.586;2022-12-29T06:58:56;63001.41;;;7.02;100.00
7832;BME280;3961;42.058;25.586;2022-12-29T07:01:22;63006.59;;;7.06;100.00
7832;BME280;3961;42.058;25.586;2022-12-29T07:03:47;63023.84;;;7.22;100.00
7832;BME280;3961;42.058;25.586;2022-12-29T07:06:13;63011.44;;;7.13;100.00
7832;BME280;3961;42.058;25.586;2022-12-29T07:08:39;63027.88;;;7.25;100.00
7832;BME280;3961;42.058;25.586;2022-12-29T07:11:05;63205.22;;;8.82;100.00
7832;BME280;3961;42.058;25.586;2022-12-29T07:13:30;63415.28;;;10.66;100.00
7832;BME280;3961;42.058;25.586;2022-12-29T07:15:56;63393.09;;;10.44;100.00
7832;BME280;3961;42.058;25.586;2022-12-29T07:18:22;63325.75;;;9.88;100.00
7832;BME280;3961;42.058;25.586;2022-12-29T07:20:47;63283.06;;;9.50;100.00
7832;BME280;3961;42.058;25.586;2022-12-29T07:23:13;63228.88;;;9.02;100.00
7832;BME280;3961;42.058;25.586;2022-12-29T07:25:38;63187.28;;;8.70;100.00
7832;BME280;3961;42.058;25.586;2022-12-29T07:28:06;63169.50;;;8.50;100.00
7832;BME280;3961;42.058;25.586;2022-12-29T07:30:31;63118.81;;;8.05;100.00
7832;BME280;3961;42.058;25.586;2022-12-29T07:32:57;63167.31;;;8.44;100.00
7832;BME280;3961;42.058;25.586;2022-12-29T07:35:22;63172.38;;;8.53;100.00
7832;BME280;3961;42.058;25.586;2022-12-29T07:37:48;63161.09;;;8.45;100.00
7832;BME280;3961;42.058;25.586;2022-12-29T07:40:13;63138.16;;;8.20;100.00
7832;BME280;3961;42.058;25.586;2022-12-29T07:42:39;63151.09;;;8.34;100.00
7832;BME280;3961;42.058;25.586;2022-12-29T07:45:05;63140.13;;;8.24;100.00
7832;BME280;3961;42.058;25.586;2022-12-29T07:47:31;63145.88;;;8.29;100.00
7832;BME280;3961;42.058;25.586;2022-12-29T07:49:57;63147.59;;;8.31;100.00
7832;BME280;3961;42.058;25.586;2022-12-29T07:52:22;63147.59;;;8.31;100.00
7832;BME280;3961;42.058;25.586;2022-12-29T07:54:48;63145.53;;;8.31;100.00
7832;BME280;3961;42.058;25.586;2022-12-29T07:57:13;63156.75;;;8.44;100.00
7832;BME280;3961;42.058;25.586;2022-12-29T07:59:39;63167.78;;;8.49;100.00
7832;BME280;3961;42.058;25.586;2022-12-29T08:02:04;63174.13;;;8.54;100.00
7832;BME280;3961;42.058;25.586;2022-12-29T08:04:30;63194.97;;;8.68;100.00
7832;BME280;3961;42.058;25.586;2022-12-29T08:06:56;63178.72;;;8.58;100.00
7832;BME280;3961;42.058;25.586;2022-12-29T08:09:21;63191.06;;;8.71;100.00
7832;BME280;3961;42.058;25.586;2022-12-29T08:11:47;63187.38;;;8.66;100.00
7832;BME280;3961;42.058;25.586;2022-12-29T08:14:13;63208.13;;;8.84;100.00
7832;BME280;3961;42.058;25.586;2022-12-29T08:16:38;63181.03;;;8.60;100.00
7832;BME280;3961;42.058;25.586;2022-12-29T08:19:04;63209.84;;;8.86;100.00
7832;BME280;3961;42.058;25.586;2022-12-29T08:21:30;63223.94;;;9.00;100.00
7832;BME280;3961;42.058;25.586;2022-12-29T08:23:56;63235.56;;;9.06;100.00
7832;BME280;3961;42.058;25.586;2022-12-29T08:26:22;63214.13;;;8.92;100.00
7832;BME280;3961;42.058;25.586;2022-12-29T08:28:47;63230.84;;;9.06;100.00
7832;BME280;3961;42.058;25.586;2022-12-29T08:31:13;63232.69;;;9.03;100.00
7832;BME280;3961;42.058;25.586;2022-12-29T08:33:39;63215.38;;;8.88;100.00
7832;BME280;3961;42.058;25.586;2022-12-29T08:36:06;63208.69;;;8.85;100.00
7832;BME280;3961;42.058;25.586;2022-12-29T08:38:32;63299.47;;;9.67;100.00
7832;BME280;3961;42.058;25.586;2022-12-29T08:40:58;63554.22;;;11.91;100.00
7832;BME280;3961;42.058;25.586;2022-12-29T08:43:26;63662.78;;;12.84;100.00
7832;BME280;3961;42.058;25.586;2022-12-29T08:45:52;63855.00;;;14.50;97.67
7832;BME280;3961;42.058;25.586;2022-12-29T08:48:18;63934.50;;;15.19;92.00
7832;BME280;3961;42.058;25.586;2022-12-29T08:50:46;63926.34;;;15.12;92.58
7832;BME280;3961;42.058;25.586;2022-12-29T08:53:12;63988.72;;;15.69;90.48
7832;BME280;3961;42.058;25.586;2022-12-29T08:55:37;63952.69;;;15.37;90.47
7832;BME280;3961;42.058;25.586;2022-12-29T08:58:03;64006.16;;;15.84;88.85
7832;BME280;3961;42.058;25.586;2022-12-29T09:00:29;64036.72;;;16.08;89.40
7832;BME280;3961;42.058;25.586;2022-12-29T09:02:54;64012.75;;;15.92;90.95
7832;BME280;3961;42.058;25.586;2022-12-29T09:05:20;63994.31;;;15.71;91.24
7832;BME280;3961;42.058;25.586;2022-12-29T09:07:46;63891.19;;;14.84;91.21
7832;BME280;3961;42.058;25.586;2022-12-29T09:10:12;63845.69;;;14.41;92.23
7832;BME280;3961;42.058;25.586;2022-12-29T09:12:37;63718.19;;;13.30;98.22
7832;BME280;3961;42.058;25.586;2022-12-29T09:15:04;63695.78;;;13.12;98.71
7832;BME280;3961;42.058;25.586;2022-12-29T09:17:30;63670.53;;;12.93;99.56
7832;BME280;3961;42.058;25.586;2022-12-29T09:20:13;63663.72;;;12.82;100.00
7832;BME280;3961;42.058;25.586;2022-12-29T09:22:39;63649.81;;;12.70;100.00
7832;BME280;3961;42.058;25.586;2022-12-29T09:25:05;63584.06;;;12.15;100.00
7832;BME280;3961;42.058;25.586;2022-12-29T09:27:31;63549.72;;;11.82;100.00
7832;BME280;3961;42.058;25.586;2022-12-29T09:29:57;63524.25;;;11.60;100.00
7832;BME280;3961;42.058;25.586;2022-12-29T09:32:22;63531.53;;;11.64;100.00
7832;BME280;3961;42.058;25.586;2022-12-29T09:34:48;63519.28;;;11.58;100.00
7832;BME280;3961;42.058;25.586;2022-12-29T09:37:14;63503.44;;;11.41;100.00
7832;BME280;3961;42.058;25.586;2022-12-29T09:39:39;63543.34;;;11.76;100.00
7832;BME280;3961;42.058;25.586;2022-12-29T09:44:46;63539.03;;;11.70;100.00
7832;BME280;3961;42.058;25.586;2022-12-29T09:47:15;63575.38;;;12.07;100.00
7832;BME280;3961;42.058;25.586;2022-12-29T09:49:46;63583.72;;;12.17;100.00
7832;BME280;3961;42.058;25.586;2022-12-29T09:52:19;63606.06;;;12.34;100.00
7832;BME280;3961;42.058;25.586;2022-12-29T09:54:52;63612.41;;;12.39;100.00
7832;BME280;3961;42.058;25.586;2022-12-29T09:57:25;63611.03;;;12.36;100.00
7832;BME280;3961;42.058;25.586;2022-12-29T09:59:55;63597.97;;;12.27;100.00
7832;BME280;3961;42.058;25.586;2022-12-29T10:02:34;63599.13;;;12.28;100.00
7832;BME280;3961;42.058;25.586;2022-12-29T10:05:02;63592.41;;;12.24;100.00
7832;BME280;3961;42.058;25.586;2022-12-29T10:07:33;63603.19;;;12.31;99.97
7832;BME280;3961;42.058;25.586;2022-12-29T10:24:02;63592.19;;;12.22;99.91
7832;BME280;3961;42.058;25.586;2022-12-29T10:26:35;63602.59;;;12.31;99.55
7832;BME280;3961;42.058;25.586;2022-12-29T10:29:05;63609.31;;;12.34;99.68
7832;BME280;3961;42.058;25.586;2022-12-29T10:31:40;63586.03;;;12.19;100.00
7832;BME280;3961;42.058;25.586;2022-12-29T10:34:28;63628.97;;;12.52;100.00
7832;BME280;3961;42.058;25.586;2022-12-29T10:39:49;63587.53;;;12.18;100.00
7832;BME280;3961;42.058;25.586;2022-12-29T10:44:43;63804.16;;;14.07;94.13
7832;BME280;3961;42.058;25.586;2022-12-29T10:47:16;63716.44;;;13.28;95.70
7832;BME280;3961;42.058;25.586;2022-12-29T10:49:45;63696.38;;;13.13;97.40
7832;BME280;3961;42.058;25.586;2022-12-29T10:52:13;63709.47;;;13.22;96.35
7832;BME280;3961;42.058;25.586;2022-12-29T10:54:48;63681.66;;;12.98;96.84
7832;BME280;3961;42.058;25.586;2022-12-29T10:57:39;63644.13;;;12.72;97.96
7832;BME280;3961;42.058;25.586;2022-12-29T11:00:20;63650.97;;;12.71;98.33
7832;BME280;3961;42.058;25.586;2022-12-29T11:08:20;63585.22;;;12.16;100.00
7832;BME280;3961;42.058;25.586;2022-12-29T11:11:00;63601.19;;;12.27;100.00
7832;BME280;3961;42.058;25.586;2022-12-29T11:13:29;63583.72;;;12.17;100.00
7832;BME280;3961;42.058;25.586;2022-12-29T11:15:55;63610.09;;;12.37;99.65
7832;BME280;3961;42.058;25.586;2022-12-29T11:18:26;63589.63;;;12.17;100.00
7832;BME280;3961;42.058;25.586;2022-12-29T11:20:54;63572.84;;;12.02;100.00
7832;BME280;3961;42.058;25.586;2022-12-29T11:23:36;63557.47;;;11.91;100.00
7832;BME280;3961;42.058;25.586;2022-12-29T11:26:18;63537.19;;;11.73;99.99
7832;BME280;3961;42.058;25.586;2022-12-29T11:28:49;63551.69;;;11.86;100.00
7832;BME280;3961;42.058;25.586;2022-12-29T11:31:29;63559.22;;;11.93;100.00
7832;BME280;3961;42.058;25.586;2022-12-29T11:33:55;63565.34;;;11.96;100.00
7832;BME280;3961;42.058;25.586;2022-12-29T11:36:23;63568.47;;;12.01;100.00
7832;BME280;3961;42.058;25.586;2022-12-29T11:38:54;63557.00;;;11.86;100.00
7832;BME280;3961;42.058;25.586;2022-12-29T11:41:24;63530.97;;;11.63;100.00
7832;BME280;3961;42.058;25.586;2022-12-29T11:43:51;63564.41;;;11.97;100.00
7832;BME280;3961;42.058;25.586;2022-12-29T11:46:25;63550.88;;;11.83;100.00
7832;BME280;3961;42.058;25.586;2022-12-29T11:48:52;63573.41;;;12.03;100.00
7832;BME280;3961;42.058;25.586;2022-12-29T11:51:27;63597.38;;;12.26;99.30
7832;BME280;3961;42.058;25.586;2022-12-29T11:53:59;63588.69;;;12.19;99.35
7832;BME280;3961;42.058;25.586;2022-12-29T11:56:36;63536.97;;;11.71;99.74
7832;BME280;3961;42.058;25.586;2022-12-29T12:01:53;63575.16;;;12.04;100.00
7832;BME280;3961;42.058;25.586;2022-12-29T12:04:23;63584.66;;;12.15;99.39
7832;BME280;3961;42.058;25.586;2022-12-29T12:07:15;63583.72;;;12.17;99.08
7832;BME280;3961;42.058;25.586;2022-12-29T12:09:58;63588.81;;;12.14;99.14
7832;BME280;3961;42.058;25.586;2022-12-29T12:12:29;63608.94;;;12.36;98.43
7832;BME280;3961;42.058;25.586;2022-12-29T12:14:59;63600.63;;;12.27;97.77
7832;BME280;3961;42.058;25.586;2022-12-29T12:17:32;63600.38;;;12.24;97.91
7832;BME280;3961;42.058;25.586;2022-12-29T12:20:54;63616.81;;;12.41;99.15
7832;BME280;3961;42.058;25.586;2022-12-29T12:23:25;63634.19;;;12.56;98.14
7832;BME280;3961;42.058;25.586;2022-12-29T12:25:59;63655.47;;;12.79;96.65
7832;BME280;3961;42.058;25.586;2022-12-29T12:33:54;63708.31;;;13.21;95.02
7832;BME280;3961;42.058;25.586;2022-12-29T12:39:00;63697.19;;;13.16;94.37
7832;BME280;3961;42.058;25.586;2022-12-29T12:58:00;63658.16;;;12.79;96.37
7832;BME280;3961;42.058;25.586;2022-12-29T13:00:36;63652.69;;;12.72;96.58
7832;BME280;3961;42.058;25.586;2022-12-29T13:11:23;63623.75;;;12.47;97.44
7832;BME280;3961;42.058;25.586;2022-12-29T13:16:49;63571.91;;;12.04;99.97
7832;BME280;3961;42.058;25.586;2022-12-29T13:19:30;63602.03;;;12.30;98.82
7832;BME280;3961;42.058;25.586;2022-12-29T13:22:23;63606.28;;;12.36;99.64
7832;BME280;3961;42.058;25.586;2022-12-29T13:27:47;63584.41;;;12.13;99.67
7832;BME280;3961;42.058;25.586;2022-12-29T13:30:19;63597.38;;;12.26;99.71
7832;BME280;3961;42.058;25.586;2022-12-29T13:33:04;63626.66;;;12.50;98.68
7832;BME280;3961;42.058;25.586;2022-12-29T13:35:46;63633.03;;;12.55;97.22
7832;BME280;3961;42.058;25.586;2022-12-29T13:38:34;63600.50;;;12.31;98.42
7832;BME280;3961;42.058;25.586;2022-12-29T13:41:08;63602.59;;;12.31;99.33
7832;BME280;3961;42.058;25.586;2022-12-29T13:43:37;63621.69;;;12.48;98.20
7832;BME280;3961;42.058;25.586;2022-12-29T13:46:10;63631.53;;;12.56;97.96
7832;BME280;3961;42.058;25.586;2022-12-29T13:48:54;63628.97;;;12.52;96.62
7832;BME280;3961;42.058;25.586;2022-12-29T13:51:21;63617.06;;;12.43;96.98
7832;BME280;3961;42.058;25.586;2022-12-29T13:54:11;63605.25;;;12.31;97.46
7832;BME280;3961;42.058;25.586;2022-12-29T13:57:00;63631.88;;;12.54;96.33
7832;BME280;3961;42.058;25.586;2022-12-29T14:05:01;63632.91;;;12.60;95.68
7832;BME280;3961;42.058;25.586;2022-12-29T14:07:28;63653.16;;;12.77;95.99
7832;BME280;3961;42.058;25.586;2022-12-29T14:09:56;63631.88;;;12.54;96.20
7832;BME280;3961;42.058;25.586;2022-12-29T14:12:42;63648.06;;;12.68;96.35
7832;BME280;3961;42.058;25.586;2022-12-29T14:17:37;63634.41;;;12.59;96.61
7832;BME280;3961;42.058;25.586;2022-12-29T14:20:16;63634.19;;;12.56;96.55
7832;BME280;3961;42.058;25.586;2022-12-29T14:36:37;63485.88;;;11.24;100.00
7832;BME280;3961;42.058;25.586;2022-12-29T14:39:26;63466.78;;;11.07;100.00
7832;BME280;3961;42.058;25.586;2022-12-29T14:44:57;63470.72;;;11.15;100.00
7832;BME280;3961;42.058;25.586;2022-12-29T14:47:33;63474.53;;;11.16;100.00
7832;BME280;3961;42.058;25.586;2022-12-29T14:50:12;63470.16;;;11.15;100.00
7832;BME280;3961;42.058;25.586;2022-12-29T14:52:59;63464.72;;;11.07;100.00
7832;BME280;3961;42.058;25.586;2022-12-29T14:58:06;63465.53;;;11.10;100.00
7832;BME280;3961;42.058;25.586;2022-12-29T15:00:34;63454.78;;;11.03;100.00
7832;BME280;3961;42.058;25.586;2022-12-29T15:05:55;63458.25;;;11.06;100.00
7832;BME280;3961;42.058;25.586;2022-12-29T15:08:26;63455.38;;;11.04;100.00
7832;BME280;3961;42.058;25.586;2022-12-29T15:11:04;63434.91;;;10.84;100.00
7832;BME280;3961;42.058;25.586;2022-12-29T15:13:40;63453.41;;;11.00;100.00
7832;BME280;3961;42.058;25.586;2022-12-29T15:16:30;63457.78;;;11.01;100.00
7832;BME280;3961;42.058;25.586;2022-12-29T15:18:58;63452.59;;;10.97;100.00
7832;BME280;3961;42.058;25.586;2022-12-29T15:21:29;63432.25;;;10.84;100.00
7832;BME280;3961;42.058;25.586;2022-12-29T15:23:55;63436.41;;;10.83;100.00
7832;BME280;3961;42.058;25.586;2022-12-29T15:26:21;63422.66;;;10.77;100.00
7832;BME280;3961;42.058;25.586;2022-12-29T15:28:50;63422.56;;;10.70;100.00
7832;BME280;3961;42.058;25.586;2022-12-29T15:31:22;63403.72;;;10.56;100.00
7832;BME280;3961;42.058;25.586;2022-12-29T15:33:50;63393.31;;;10.47;100.00
7832;BME280;3961;42.058;25.586;2022-12-29T15:36:23;63385.22;;;10.40;100.00
7832;BME280;3961;42.058;25.586;2022-12-29T15:38:49;63362.16;;;10.20;100.00
7832;BME280;3961;42.058;25.586;2022-12-29T15:44:24;63361.56;;;10.19;100.00